sensor_id;sensor_type;location;lat;lon;timestamp;temperature;humidity
66312;HTU21D;53114;51.138;6.008;2023-06-22T00:01:14;21.70;74.47
66312;HTU21D;53114;51.138;6.008;2023-06-22T00:03:40;21.65;74.47
66312;HTU21D;53114;51.138;6.008;2023-06-22T00:06:06;21.67;74.58
66312;HTU21D;53114;51.138;6.008;2023-06-22T00:08:32;21.68;73.64
66312;HTU21D;53114;51.138;6.008;2023-06-22T00:10:58;21.69;73.39
66312;HTU21D;53114;51.138;6.008;2023-06-22T00:13:24;21.62;74.71
66312;HTU21D;53114;51.138;6.008;2023-06-22T00:15:50;21.54;76.96
66312;HTU21D;53114;51.138;6.008;2023-06-22T00:18:16;21.48;77.01
66312;HTU21D;53114;51.138;6.008;2023-06-22T00:20:42;21.44;76.09
66312;HTU21D;53114;51.138;6.008;2023-06-22T00:23:08;21.39;77.32
66312;HTU21D;53114;51.138;6.008;2023-06-22T00:25:35;21.36;78.02
66312;HTU21D;53114;51.138;6.008;2023-06-22T00:28:02;21.33;77.02
66312;HTU21D;53114;51.138;6.008;2023-06-22T00:30:31;21.35;78.08
66312;HTU21D;53114;51.138;6.008;2023-06-22T00:32:58;21.38;75.86
66312;HTU21D;53114;51.138;6.008;2023-06-22T00:35:25;21.38;77.48
66312;HTU21D;53114;51.138;6.008;2023-06-22T00:37:59;21.40;78.23
66312;HTU21D;53114;51.138;6.008;2023-06-22T00:40:31;21.47;77.69
66312;HTU21D;53114;51.138;6.008;2023-06-22T00:42:58;21.55;76.52
66312;HTU21D;53114;51.138;6.008;2023-06-22T00:45:25;21.61;74.65
66312;HTU21D;53114;51.138;6.008;2023-06-22T00:47:53;21.66;76.21
66312;HTU21D;53114;51.138;6.008;2023-06-22T00:50:22;21.70;75.54
66312;HTU21D;53114;51.138;6.008;2023-06-22T00:52:55;21.78;75.34
66312;HTU21D;53114;51.138;6.008;2023-06-22T00:55:23;21.83;75.88
66312;HTU21D;53114;51.138;6.008;2023-06-22T00:57:49;21.88;75.38
66312;HTU21D;53114;51.138;6.008;2023-06-22T01:00:16;21.84;76.98
66312;HTU21D;53114;51.138;6.008;2023-06-22T01:02:45;21.88;77.07
66312;HTU21D;53114;51.138;6.008;2023-06-22T01:05:17;21.91;77.05
66312;HTU21D;53114;51.138;6.008;2023-06-22T01:11:05;21.99;77.02
66312;HTU21D;53114;51.138;6.008;2023-06-22T01:16:27;21.93;78.01
66312;HTU21D;53114;51.138;6.008;2023-06-22T01:18:57;21.93;78.83
66312;HTU21D;53114;51.138;6.008;2023-06-22T01:21:30;21.87;80.34
66312;HTU21D;53114;51.138;6.008;2023-06-22T01:29:58;21.80;84.32
66312;HTU21D;53114;51.138;6.008;2023-06-22T01:32:34;21.78;85.35
66312;HTU21D;53114;51.138;6.008;2023-06-22T01:35:04;21.73;87.41
66312;HTU21D;53114;51.138;6.008;2023-06-22T01:37:33;21.74;88.35
66312;HTU21D;53114;51.138;6.008;2023-06-22T01:40:02;21.74;89.28
66312;HTU21D;53114;51.138;6.008;2023-06-22T01:42:34;21.76;89.50
66312;HTU21D;53114;51.138;6.008;2023-06-22T01:45:02;21.79;90.26
66312;HTU21D;53114;51.138;6.008;2023-06-22T01:47:31;21.80;90.88
66312;HTU21D;53114;51.138;6.008;2023-06-22T01:49:58;21.79;90.57
66312;HTU21D;53114;51.138;6.008;2023-06-22T01:52:24;21.81;91.42
66312;HTU21D;53114;51.138;6.008;2023-06-22T01:54:50;21.80;92.35
66312;HTU21D;53114;51.138;6.008;2023-06-22T01:57:18;21.82;93.40
66312;HTU21D;53114;51.138;6.008;2023-06-22T02:00:03;21.82;92.66
66312;HTU21D;53114;51.138;6.008;2023-06-22T02:02:52;21.79;94.38
66312;HTU21D;53114;51.138;6.008;2023-06-22T02:05:22;21.76;94.69
66312;HTU21D;53114;51.138;6.008;2023-06-22T02:07:58;21.78;95.73
66312;HTU21D;53114;51.138;6.008;2023-06-22T02:10:28;21.79;95.84
66312;HTU21D;53114;51.138;6.008;2023-06-22T02:12:59;21.80;95.91
66312;HTU21D;53114;51.138;6.008;2023-06-22T02:15:26;21.81;96.84
66312;HTU21D;53114;51.138;6.008;2023-06-22T02:17:55;21.80;97.49
66312;HTU21D;53114;51.138;6.008;2023-06-22T02:20:23;21.81;97.99
66312;HTU21D;53114;51.138;6.008;2023-06-22T02:22:49;21.83;98.42
66312;HTU21D;53114;51.138;6.008;2023-06-22T02:25:16;21.82;98.26
66312;HTU21D;53114;51.138;6.008;2023-06-22T02:27:44;21.79;99.26
66312;HTU21D;53114;51.138;6.008;2023-06-22T02:30:10;21.80;99.00
66312;HTU21D;53114;51.138;6.008;2023-06-22T02:32:38;21.78;99.78
66312;HTU21D;53114;51.138;6.008;2023-06-22T02:35:10;21.80;99.53
66312;HTU21D;53114;51.138;6.008;2023-06-22T02:37:37;21.79;100.08
66312;HTU21D;53114;51.138;6.008;2023-06-22T02:40:10;21.79;99.77
66312;HTU21D;53114;51.138;6.008;2023-06-22T02:42:39;21.80;100.12
66312;HTU21D;53114;51.138;6.008;2023-06-22T02:45:05;21.77;100.62
66312;HTU21D;53114;51.138;6.008;2023-06-22T02:47:32;21.75;101.67
66312;HTU21D;53114;51.138;6.008;2023-06-22T02:49:59;21.75;101.95
66312;HTU21D;53114;51.138;6.008;2023-06-22T02:52:26;21.72;101.39
66312;HTU21D;53114;51.138;6.008;2023-06-22T02:54:52;21.66;100.57
66312;HTU21D;53114;51.138;6.008;2023-06-22T02:57:18;21.62;101.73
66312;HTU21D;53114;51.138;6.008;2023-06-22T02:59:44;21.61;102.06
66312;HTU21D;53114;51.138;6.008;2023-06-22T03:02:12;21.58;103.61
66312;HTU21D;53114;51.138;6.008;2023-06-22T03:04:39;21.55;103.57
66312;HTU21D;53114;51.138;6.008;2023-06-22T03:07:05;21.52;103.66
66312;HTU21D;53114;51.138;6.008;2023-06-22T03:09:32;21.48;103.72
66312;HTU21D;53114;51.138;6.008;2023-06-22T03:11:59;21.45;103.97
66312;HTU21D;53114;51.138;6.008;2023-06-22T03:14:36;21.42;105.09
66312;HTU21D;53114;51.138;6.008;2023-06-22T03:17:04;21.39;105.40
66312;HTU21D;53114;51.138;6.008;2023-06-22T03:19:30;21.37;105.86
66312;HTU21D;53114;51.138;6.008;2023-06-22T03:22:00;21.29;106.37
66312;HTU21D;53114;51.138;6.008;2023-06-22T03:24:26;21.25;106.46
66312;HTU21D;53114;51.138;6.008;2023-06-22T03:26:54;21.25;107.08
66312;HTU21D;53114;51.138;6.008;2023-06-22T03:29:20;21.27;107.77
66312;HTU21D;53114;51.138;6.008;2023-06-22T03:31:46;21.27;107.07
66312;HTU21D;53114;51.138;6.008;2023-06-22T03:34:13;21.27;107.82
66312;HTU21D;53114;51.138;6.008;2023-06-22T03:36:39;21.25;108.62
66312;HTU21D;53114;51.138;6.008;2023-06-22T03:39:05;21.25;109.49
66312;HTU21D;53114;51.138;6.008;2023-06-22T03:41:32;21.29;110.23
66312;HTU21D;53114;51.138;6.008;2023-06-22T03:43:58;21.22;110.83
66312;HTU21D;53114;51.138;6.008;2023-06-22T03:46:24;21.27;111.00
66312;HTU21D;53114;51.138;6.008;2023-06-22T03:48:51;21.31;111.13
66312;HTU21D;53114;51.138;6.008;2023-06-22T03:51:17;21.33;111.09
66312;HTU21D;53114;51.138;6.008;2023-06-22T03:53:44;21.38;110.82
66312;HTU21D;53114;51.138;6.008;2023-06-22T03:56:10;21.45;110.65
66312;HTU21D;53114;51.138;6.008;2023-06-22T03:58:36;21.51;109.84
66312;HTU21D;53114;51.138;6.008;2023-06-22T04:01:08;21.52;110.00
66312;HTU21D;53114;51.138;6.008;2023-06-22T04:03:38;21.55;108.81
66312;HTU21D;53114;51.138;6.008;2023-06-22T04:06:03;21.58;108.78
66312;HTU21D;53114;51.138;6.008;2023-06-22T04:08:32;21.57;109.56
66312;HTU21D;53114;51.138;6.008;2023-06-22T04:10:59;21.54;109.01
66312;HTU21D;53114;51.138;6.008;2023-06-22T04:13:25;21.52;108.99
66312;HTU21D;53114;51.138;6.008;2023-06-22T04:15:51;21.50;109.48
66312;HTU21D;53114;51.138;6.008;2023-06-22T04:18:17;21.52;109.15
66312;HTU21D;53114;51.138;6.008;2023-06-22T04:20:43;21.52;109.17
66312;HTU21D;53114;51.138;6.008;2023-06-22T04:23:12;21.49;109.13
66312;HTU21D;53114;51.138;6.008;2023-06-22T04:25:39;21.49;109.41
66312;HTU21D;53114;51.138;6.008;2023-06-22T04:28:05;21.49;109.44
66312;HTU21D;53114;51.138;6.008;2023-06-22T04:30:38;21.52;109.74
66312;HTU21D;53114;51.138;6.008;2023-06-22T04:33:13;21.50;109.12
66312;HTU21D;53114;51.138;6.008;2023-06-22T04:35:40;21.47;109.94
66312;HTU21D;53114;51.138;6.008;2023-06-22T04:38:07;21.53;110.82
66312;HTU21D;53114;51.138;6.008;2023-06-22T04:40:33;21.60;110.65
66312;HTU21D;53114;51.138;6.008;2023-06-22T04:43:00;21.67;110.59
66312;HTU21D;53114;51.138;6.008;2023-06-22T04:45:29;21.72;109.46
66312;HTU21D;53114;51.138;6.008;2023-06-22T04:47:55;21.74;109.90
66312;HTU21D;53114;51.138;6.008;2023-06-22T04:50:21;21.78;109.39
66312;HTU21D;53114;51.138;6.008;2023-06-22T04:52:53;21.80;109.44
66312;HTU21D;53114;51.138;6.008;2023-06-22T04:55:24;21.80;108.88
66312;HTU21D;53114;51.138;6.008;2023-06-22T04:57:51;21.79;109.55
66312;HTU21D;53114;51.138;6.008;2023-06-22T05:00:18;21.84;110.13
66312;HTU21D;53114;51.138;6.008;2023-06-22T05:02:48;21.88;110.81
66312;HTU21D;53114;51.138;6.008;2023-06-22T05:05:15;21.89;110.62
66312;HTU21D;53114;51.138;6.008;2023-06-22T05:07:44;21.94;109.90
66312;HTU21D;53114;51.138;6.008;2023-06-22T05:10:11;21.99;109.63
66312;HTU21D;53114;51.138;6.008;2023-06-22T05:12:41;21.99;109.50
66312;HTU21D;53114;51.138;6.008;2023-06-22T05:15:08;21.99;110.07
66312;HTU21D;53114;51.138;6.008;2023-06-22T05:17:35;22.05;109.85
66312;HTU21D;53114;51.138;6.008;2023-06-22T05:20:02;22.11;109.99
66312;HTU21D;53114;51.138;6.008;2023-06-22T05:22:32;22.14;110.27
66312;HTU21D;53114;51.138;6.008;2023-06-22T05:24:58;22.17;111.31
66312;HTU21D;53114;51.138;6.008;2023-06-22T05:27:24;22.13;111.42
66312;HTU21D;53114;51.138;6.008;2023-06-22T05:29:53;22.11;112.48
66312;HTU21D;53114;51.138;6.008;2023-06-22T05:32:19;22.07;113.61
66312;HTU21D;53114;51.138;6.008;2023-06-22T05:34:45;22.02;114.68
66312;HTU21D;53114;51.138;6.008;2023-06-22T05:37:11;21.92;118.57
66312;HTU21D;53114;51.138;6.008;2023-06-22T05:39:38;21.80;118.99
66312;HTU21D;53114;51.138;6.008;2023-06-22T05:42:07;21.68;118.99
66312;HTU21D;53114;51.138;6.008;2023-06-22T05:44:33;21.57;118.99
66312;HTU21D;53114;51.138;6.008;2023-06-22T05:46:59;21.47;118.99
66312;HTU21D;53114;51.138;6.008;2023-06-22T05:49:25;21.40;118.99
66312;HTU21D;53114;51.138;6.008;2023-06-22T05:51:58;21.34;118.99
66312;HTU21D;53114;51.138;6.008;2023-06-22T05:54:27;21.30;118.99
66312;HTU21D;53114;51.138;6.008;2023-06-22T05:56:54;21.25;118.99
66312;HTU21D;53114;51.138;6.008;2023-06-22T05:59:20;21.25;118.99
66312;HTU21D;53114;51.138;6.008;2023-06-22T06:01:46;21.31;118.99
66312;HTU21D;53114;51.138;6.008;2023-06-22T06:04:19;21.35;118.99
66312;HTU21D;53114;51.138;6.008;2023-06-22T06:06:45;21.38;118.99
66312;HTU21D;53114;51.138;6.008;2023-06-22T06:09:14;21.39;118.99
66312;HTU21D;53114;51.138;6.008;2023-06-22T06:11:40;21.39;118.99
66312;HTU21D;53114;51.138;6.008;2023-06-22T06:14:06;21.34;118.99
66312;HTU21D;53114;51.138;6.008;2023-06-22T06:16:32;21.27;118.99
66312;HTU21D;53114;51.138;6.008;2023-06-22T06:18:59;21.23;118.99
66312;HTU21D;53114;51.138;6.008;2023-06-22T06:21:25;21.18;118.99
66312;HTU21D;53114;51.138;6.008;2023-06-22T06:23:51;21.16;118.99
66312;HTU21D;53114;51.138;6.008;2023-06-22T06:26:19;21.15;118.99
66312;HTU21D;53114;51.138;6.008;2023-06-22T06:28:52;21.08;118.99
66312;HTU21D;53114;51.138;6.008;2023-06-22T06:31:18;21.02;118.99
66312;HTU21D;53114;51.138;6.008;2023-06-22T06:33:44;21.03;118.99
66312;HTU21D;53114;51.138;6.008;2023-06-22T06:36:10;21.16;118.99
66312;HTU21D;53114;51.138;6.008;2023-06-22T06:38:36;21.29;118.99
66312;HTU21D;53114;51.138;6.008;2023-06-22T06:41:02;21.28;118.99
66312;HTU21D;53114;51.138;6.008;2023-06-22T06:43:28;21.24;118.99
66312;HTU21D;53114;51.138;6.008;2023-06-22T06:45:54;21.21;118.99
66312;HTU21D;53114;51.138;6.008;2023-06-22T06:48:20;21.19;118.99
66312;HTU21D;53114;51.138;6.008;2023-06-22T06:50:49;21.13;118.99
66312;HTU21D;53114;51.138;6.008;2023-06-22T06:53:15;21.07;118.99
66312;HTU21D;53114;51.138;6.008;2023-06-22T06:55:41;20.99;118.99
66312;HTU21D;53114;51.138;6.008;2023-06-22T06:58:08;20.90;118.99
66312;HTU21D;53114;51.138;6.008;2023-06-22T07:00:35;20.73;118.99
66312;HTU21D;53114;51.138;6.008;2023-06-22T07:03:01;20.64;118.99
66312;HTU21D;53114;51.138;6.008;2023-06-22T07:05:27;20.70;118.99
66312;HTU21D;53114;51.138;6.008;2023-06-22T07:07:53;20.79;118.99
66312;HTU21D;53114;51.138;6.008;2023-06-22T07:10:19;20.83;118.99
66312;HTU21D;53114;51.138;6.008;2023-06-22T07:12:45;20.89;118.99
66312;HTU21D;53114;51.138;6.008;2023-06-22T07:15:12;20.99;118.99
66312;HTU21D;53114;51.138;6.008;2023-06-22T07:17:39;21.13;118.99
66312;HTU21D;53114;51.138;6.008;2023-06-22T07:20:11;21.21;118.99
66312;HTU21D;53114;51.138;6.008;2023-06-22T07:22:39;21.30;118.99
66312;HTU21D;53114;51.138;6.008;2023-06-22T07:25:06;21.38;118.99
66312;HTU21D;53114;51.138;6.008;2023-06-22T07:27:43;21.50;118.99
66312;HTU21D;53114;51.138;6.008;2023-06-22T07:30:11;21.68;118.99
66312;HTU21D;53114;51.138;6.008;2023-06-22T07:32:37;21.88;118.99
66312;HTU21D;53114;51.138;6.008;2023-06-22T07:35:03;22.05;118.99
66312;HTU21D;53114;51.138;6.008;2023-06-22T07:37:30;22.22;118.99
66312;HTU21D;53114;51.138;6.008;2023-06-22T07:39:58;22.48;118.99
66312;HTU21D;53114;51.138;6.008;2023-06-22T07:42:25;22.69;118.99
66312;HTU21D;53114;51.138;6.008;2023-06-22T07:44:51;22.95;118.99
66312;HTU21D;53114;51.138;6.008;2023-06-22T07:47:18;23.21;118.99
66312;HTU21D;53114;51.138;6.008;2023-06-22T07:49:46;23.52;118.99
66312;HTU21D;53114;51.138;6.008;2023-06-22T07:52:12;23.83;118.99
66312;HTU21D;53114;51.138;6.008;2023-06-22T07:54:38;23.89;118.99
66312;HTU21D;53114;51.138;6.008;2023-06-22T07:57:05;23.89;118.99
66312;HTU21D;53114;51.138;6.008;2023-06-22T07:59:31;23.80;118.99
66312;HTU21D;53114;51.138;6.008;2023-06-22T08:01:57;23.85;118.99
66312;HTU21D;53114;51.138;6.008;2023-06-22T08:04:27;24.13;118.99
66312;HTU21D;53114;51.138;6.008;2023-06-22T08:06:54;24.57;114.83
66312;HTU21D;53114;51.138;6.008;2023-06-22T08:09:20;25.19;110.05
66312;HTU21D;53114;51.138;6.008;2023-06-22T08:11:46;26.27;100.48
66312;HTU21D;53114;51.138;6.008;2023-06-22T08:14:12;27.39;87.48
66312;HTU21D;53114;51.138;6.008;2023-06-22T08:16:38;27.71;77.90
66312;HTU21D;53114;51.138;6.008;2023-06-22T08:19:04;27.23;75.62
66312;HTU21D;53114;51.138;6.008;2023-06-22T08:21:30;26.43;81.78
66312;HTU21D;53114;51.138;6.008;2023-06-22T08:23:56;25.92;89.63
66312;HTU21D;53114;51.138;6.008;2023-06-22T08:26:22;25.63;95.91
66312;HTU21D;53114;51.138;6.008;2023-06-22T08:28:52;25.49;100.80
66312;HTU21D;53114;51.138;6.008;2023-06-22T08:31:20;25.89;97.04
66312;HTU21D;53114;51.138;6.008;2023-06-22T08:33:47;26.27;90.46
66312;HTU21D;53114;51.138;6.008;2023-06-22T08:36:13;27.29;85.84
66312;HTU21D;53114;51.138;6.008;2023-06-22T08:38:39;27.89;74.02
66312;HTU21D;53114;51.138;6.008;2023-06-22T08:41:05;27.59;73.63
66312;HTU21D;53114;51.138;6.008;2023-06-22T08:43:31;27.55;75.85
66312;HTU21D;53114;51.138;6.008;2023-06-22T08:45:57;28.64;70.61
66312;HTU21D;53114;51.138;6.008;2023-06-22T08:48:23;29.92;62.78
66312;HTU21D;53114;51.138;6.008;2023-06-22T08:50:49;30.75;56.15
66312;HTU21D;53114;51.138;6.008;2023-06-22T08:53:15;30.85;54.51
66312;HTU21D;53114;51.138;6.008;2023-06-22T08:55:41;30.80;54.76
66312;HTU21D;53114;51.138;6.008;2023-06-22T08:58:07;30.57;55.01
66312;HTU21D;53114;51.138;6.008;2023-06-22T09:00:34;30.18;57.78
66312;HTU21D;53114;51.138;6.008;2023-06-22T09:03:00;29.57;60.86
66312;HTU21D;53114;51.138;6.008;2023-06-22T09:05:26;29.00;63.68
66312;HTU21D;53114;51.138;6.008;2023-06-22T09:07:53;28.42;66.07
66312;HTU21D;53114;51.138;6.008;2023-06-22T09:10:22;27.87;67.78
66312;HTU21D;53114;51.138;6.008;2023-06-22T09:12:48;27.50;73.30
66312;HTU21D;53114;51.138;6.008;2023-06-22T09:15:14;27.61;74.73
66312;HTU21D;53114;51.138;6.008;2023-06-22T09:17:41;27.89;71.57
66312;HTU21D;53114;51.138;6.008;2023-06-22T09:20:07;28.04;70.02
66312;HTU21D;53114;51.138;6.008;2023-06-22T09:22:36;28.13;70.26
66312;HTU21D;53114;51.138;6.008;2023-06-22T09:25:05;28.18;70.00
66312;HTU21D;53114;51.138;6.008;2023-06-22T09:27:31;28.47;68.75
66312;HTU21D;53114;51.138;6.008;2023-06-22T09:29:57;28.73;68.43
66312;HTU21D;53114;51.138;6.008;2023-06-22T09:32:24;28.87;65.76
66312;HTU21D;53114;51.138;6.008;2023-06-22T09:34:51;28.63;64.76
66312;HTU21D;53114;51.138;6.008;2023-06-22T09:37:18;28.27;67.79
66312;HTU21D;53114;51.138;6.008;2023-06-22T09:39:44;27.95;71.05
66312;HTU21D;53114;51.138;6.008;2023-06-22T09:42:10;27.69;75.65
66312;HTU21D;53114;51.138;6.008;2023-06-22T09:44:37;27.41;74.93
66312;HTU21D;53114;51.138;6.008;2023-06-22T09:47:03;27.17;77.27
66312;HTU21D;53114;51.138;6.008;2023-06-22T09:49:30;27.06;80.64
66312;HTU21D;53114;51.138;6.008;2023-06-22T09:51:58;27.11;81.62
66312;HTU21D;53114;51.138;6.008;2023-06-22T09:54:25;27.19;80.40
66312;HTU21D;53114;51.138;6.008;2023-06-22T09:56:51;27.26;77.99
66312;HTU21D;53114;51.138;6.008;2023-06-22T09:59:17;27.26;77.65
66312;HTU21D;53114;51.138;6.008;2023-06-22T10:01:44;27.21;77.74
66312;HTU21D;53114;51.138;6.008;2023-06-22T10:04:10;27.12;78.34
66312;HTU21D;53114;51.138;6.008;2023-06-22T10:06:36;27.00;79.82
66312;HTU21D;53114;51.138;6.008;2023-06-22T10:09:02;26.83;82.21
66312;HTU21D;53114;51.138;6.008;2023-06-22T10:11:28;26.64;86.18
66312;HTU21D;53114;51.138;6.008;2023-06-22T10:13:56;26.36;92.53
66312;HTU21D;53114;51.138;6.008;2023-06-22T10:16:29;26.12;99.01
66312;HTU21D;53114;51.138;6.008;2023-06-22T10:18:56;25.90;103.41
66312;HTU21D;53114;51.138;6.008;2023-06-22T10:21:22;25.69;107.29
66312;HTU21D;53114;51.138;6.008;2023-06-22T10:23:48;25.56;110.42
66312;HTU21D;53114;51.138;6.008;2023-06-22T10:26:14;25.44;110.70
66312;HTU21D;53114;51.138;6.008;2023-06-22T10:28:40;25.32;112.08
66312;HTU21D;53114;51.138;6.008;2023-06-22T10:31:06;25.23;114.87
66312;HTU21D;53114;51.138;6.008;2023-06-22T10:33:32;25.15;117.62
66312;HTU21D;53114;51.138;6.008;2023-06-22T10:35:58;25.05;118.98
66312;HTU21D;53114;51.138;6.008;2023-06-22T10:38:24;24.98;117.30
66312;HTU21D;53114;51.138;6.008;2023-06-22T10:40:51;24.88;117.69
66312;HTU21D;53114;51.138;6.008;2023-06-22T10:43:17;24.76;117.98
66312;HTU21D;53114;51.138;6.008;2023-06-22T10:45:43;24.65;118.99
66312;HTU21D;53114;51.138;6.008;2023-06-22T10:48:09;24.51;118.99
66312;HTU21D;53114;51.138;6.008;2023-06-22T10:50:35;24.38;118.99
66312;HTU21D;53114;51.138;6.008;2023-06-22T10:53:01;24.28;118.99
66312;HTU21D;53114;51.138;6.008;2023-06-22T10:55:27;24.11;118.99
66312;HTU21D;53114;51.138;6.008;2023-06-22T10:57:53;23.89;118.99
66312;HTU21D;53114;51.138;6.008;2023-06-22T11:00:20;23.72;118.99
66312;HTU21D;53114;51.138;6.008;2023-06-22T11:02:47;23.52;118.99
66312;HTU21D;53114;51.138;6.008;2023-06-22T11:05:13;23.37;118.99
66312;HTU21D;53114;51.138;6.008;2023-06-22T11:07:43;23.27;118.99
66312;HTU21D;53114;51.138;6.008;2023-06-22T11:10:10;23.23;118.99
66312;HTU21D;53114;51.138;6.008;2023-06-22T11:12:37;23.22;118.99
66312;HTU21D;53114;51.138;6.008;2023-06-22T11:15:03;23.09;118.99
66312;HTU21D;53114;51.138;6.008;2023-06-22T11:17:29;22.88;118.99
66312;HTU21D;53114;51.138;6.008;2023-06-22T11:19:55;22.65;118.99
66312;HTU21D;53114;51.138;6.008;2023-06-22T11:22:21;22.56;118.99
66312;HTU21D;53114;51.138;6.008;2023-06-22T11:24:47;22.64;118.99
66312;HTU21D;53114;51.138;6.008;2023-06-22T11:27:14;22.79;118.99
66312;HTU21D;53114;51.138;6.008;2023-06-22T11:29:39;22.88;118.99
66312;HTU21D;53114;51.138;6.008;2023-06-22T11:32:06;23.00;118.99
66312;HTU21D;53114;51.138;6.008;2023-06-22T11:34:33;23.16;118.99
66312;HTU21D;53114;51.138;6.008;2023-06-22T11:36:59;23.35;118.99
66312;HTU21D;53114;51.138;6.008;2023-06-22T11:39:25;23.51;118.99
66312;HTU21D;53114;51.138;6.008;2023-06-22T11:41:51;23.66;118.99
66312;HTU21D;53114;51.138;6.008;2023-06-22T11:44:17;23.91;118.99
66312;HTU21D;53114;51.138;6.008;2023-06-22T11:46:45;24.08;118.99
66312;HTU21D;53114;51.138;6.008;2023-06-22T11:49:12;24.03;118.99
66312;HTU21D;53114;51.138;6.008;2023-06-22T11:51:37;23.99;118.99
66312;HTU21D;53114;51.138;6.008;2023-06-22T11:54:04;24.02;118.99
66312;HTU21D;53114;51.138;6.008;2023-06-22T11:56:30;23.76;118.99
66312;HTU21D;53114;51.138;6.008;2023-06-22T11:58:56;23.55;118.99
66312;HTU21D;53114;51.138;6.008;2023-06-22T12:01:22;23.44;118.99
66312;HTU21D;53114;51.138;6.008;2023-06-22T12:03:48;23.42;118.99
66312;HTU21D;53114;51.138;6.008;2023-06-22T12:06:14;23.50;118.99
66312;HTU21D;53114;51.138;6.008;2023-06-22T12:08:40;23.53;118.99
66312;HTU21D;53114;51.138;6.008;2023-06-22T12:11:06;23.39;118.99
66312;HTU21D;53114;51.138;6.008;2023-06-22T12:13:32;23.14;118.99
66312;HTU21D;53114;51.138;6.008;2023-06-22T12:15:58;23.02;118.99
66312;HTU21D;53114;51.138;6.008;2023-06-22T12:18:24;23.02;118.99
66312;HTU21D;53114;51.138;6.008;2023-06-22T12:20:50;22.97;118.99
66312;HTU21D;53114;51.138;6.008;2023-06-22T12:23:16;22.97;118.99
66312;HTU21D;53114;51.138;6.008;2023-06-22T12:25:45;23.10;118.99
66312;HTU21D;53114;51.138;6.008;2023-06-22T12:28:11;23.24;118.99
66312;HTU21D;53114;51.138;6.008;2023-06-22T12:30:37;23.35;118.99
66312;HTU21D;53114;51.138;6.008;2023-06-22T12:33:03;23.50;118.99
66312;HTU21D;53114;51.138;6.008;2023-06-22T12:35:29;23.60;118.99
66312;HTU21D;53114;51.138;6.008;2023-06-22T12:37:55;23.73;118.99
66312;HTU21D;53114;51.138;6.008;2023-06-22T12:40:22;23.85;118.99
66312;HTU21D;53114;51.138;6.008;2023-06-22T12:42:48;23.94;118.99
66312;HTU21D;53114;51.138;6.008;2023-06-22T12:45:15;23.99;118.99
66312;HTU21D;53114;51.138;6.008;2023-06-22T12:47:41;24.08;118.99
66312;HTU21D;53114;51.138;6.008;2023-06-22T12:50:07;24.11;118.99
66312;HTU21D;53114;51.138;6.008;2023-06-22T12:52:37;24.01;118.99
66312;HTU21D;53114;51.138;6.008;2023-06-22T12:55:07;23.99;118.99
66312;HTU21D;53114;51.138;6.008;2023-06-22T12:57:33;24.01;118.99
66312;HTU21D;53114;51.138;6.008;2023-06-22T12:59:59;23.97;118.99
66312;HTU21D;53114;51.138;6.008;2023-06-22T13:02:26;23.90;118.99
66312;HTU21D;53114;51.138;6.008;2023-06-22T13:04:53;23.80;118.99
66312;HTU21D;53114;51.138;6.008;2023-06-22T13:07:19;23.67;118.99
66312;HTU21D;53114;51.138;6.008;2023-06-22T13:09:45;23.54;118.99
66312;HTU21D;53114;51.138;6.008;2023-06-22T13:12:12;23.37;118.99
66312;HTU21D;53114;51.138;6.008;2023-06-22T13:14:38;23.24;118.99
66312;HTU21D;53114;51.138;6.008;2023-06-22T13:17:04;23.10;118.99
66312;HTU21D;53114;51.138;6.008;2023-06-22T13:19:30;23.00;118.99
66312;HTU21D;53114;51.138;6.008;2023-06-22T13:21:59;22.93;118.99
66312;HTU21D;53114;51.138;6.008;2023-06-22T13:24:25;22.86;118.99
66312;HTU21D;53114;51.138;6.008;2023-06-22T13:26:52;22.84;118.99
66312;HTU21D;53114;51.138;6.008;2023-06-22T13:29:18;22.77;118.99
66312;HTU21D;53114;51.138;6.008;2023-06-22T13:31:44;22.78;118.99
66312;HTU21D;53114;51.138;6.008;2023-06-22T13:34:10;22.80;118.99
66312;HTU21D;53114;51.138;6.008;2023-06-22T13:36:36;22.77;118.99
66312;HTU21D;53114;51.138;6.008;2023-06-22T13:39:02;22.72;118.99
66312;HTU21D;53114;51.138;6.008;2023-06-22T13:41:29;22.75;118.99
66312;HTU21D;53114;51.138;6.008;2023-06-22T13:43:55;22.71;118.99
66312;HTU21D;53114;51.138;6.008;2023-06-22T13:46:24;22.71;118.99
66312;HTU21D;53114;51.138;6.008;2023-06-22T13:48:50;22.70;118.99
66312;HTU21D;53114;51.138;6.008;2023-06-22T13:51:16;22.66;118.99
66312;HTU21D;53114;51.138;6.008;2023-06-22T13:53:42;22.62;118.99
66312;HTU21D;53114;51.138;6.008;2023-06-22T13:56:09;22.60;118.99
66312;HTU21D;53114;51.138;6.008;2023-06-22T13:58:35;22.61;118.99
66312;HTU21D;53114;51.138;6.008;2023-06-22T14:01:01;22.62;118.99
66312;HTU21D;53114;51.138;6.008;2023-06-22T14:03:27;22.63;118.99
66312;HTU21D;53114;51.138;6.008;2023-06-22T14:05:53;22.66;118.99
66312;HTU21D;53114;51.138;6.008;2023-06-22T14:08:21;22.68;118.99
66312;HTU21D;53114;51.138;6.008;2023-06-22T14:10:49;22.71;118.99
66312;HTU21D;53114;51.138;6.008;2023-06-22T14:13:15;22.69;118.99
66312;HTU21D;53114;51.138;6.008;2023-06-22T14:15:41;22.69;118.99
66312;HTU21D;53114;51.138;6.008;2023-06-22T14:18:08;22.66;118.99
66312;HTU21D;53114;51.138;6.008;2023-06-22T14:20:34;22.62;118.99
66312;HTU21D;53114;51.138;6.008;2023-06-22T14:23:00;22.58;118.99
66312;HTU21D;53114;51.138;6.008;2023-06-22T14:25:26;22.54;118.99
66312;HTU21D;53114;51.138;6.008;2023-06-22T14:27:52;22.50;118.99
66312;HTU21D;53114;51.138;6.008;2023-06-22T14:30:18;22.46;118.99
66312;HTU21D;53114;51.138;6.008;2023-06-22T14:32:45;22.41;118.99
66312;HTU21D;53114;51.138;6.008;2023-06-22T14:35:11;22.37;118.99
66312;HTU21D;53114;51.138;6.008;2023-06-22T14:37:37;22.33;118.99
66312;HTU21D;53114;51.138;6.008;2023-06-22T14:40:03;22.23;118.99
66312;HTU21D;53114;51.138;6.008;2023-06-22T14:42:29;22.06;118.99
66312;HTU21D;53114;51.138;6.008;2023-06-22T14:44:56;21.93;118.99
66312;HTU21D;53114;51.138;6.008;2023-06-22T14:47:22;21.89;118.99
66312;HTU21D;53114;51.138;6.008;2023-06-22T14:49:48;21.77;118.99
66312;HTU21D;53114;51.138;6.008;2023-06-22T14:52:14;21.65;118.99
66312;HTU21D;53114;51.138;6.008;2023-06-22T14:54:40;21.52;118.99
66312;HTU21D;53114;51.138;6.008;2023-06-22T14:57:06;21.37;118.99
66312;HTU21D;53114;51.138;6.008;2023-06-22T14:59:33;21.20;118.99
66312;HTU21D;53114;51.138;6.008;2023-06-22T15:01:59;21.04;118.99
66312;HTU21D;53114;51.138;6.008;2023-06-22T15:04:25;20.87;118.99
66312;HTU21D;53114;51.138;6.008;2023-06-22T15:06:59;20.74;118.99
66312;HTU21D;53114;51.138;6.008;2023-06-22T15:09:28;20.66;118.99
66312;HTU21D;53114;51.138;6.008;2023-06-22T15:11:54;20.53;118.99
66312;HTU21D;53114;51.138;6.008;2023-06-22T15:14:23;20.43;118.99
66312;HTU21D;53114;51.138;6.008;2023-06-22T15:16:50;20.41;118.99